Time;durP1;ratioP1;P1;durP2;ratioP2;P2;SDS_P1;SDS_P2;PMS_P1;PMS_P2;Temp;Humidity;BMP_temperature;BMP_pressure;BME280_temperature;BME280_humidity;BME280_pressure;Samples;Min_cycle;Max_cycle;Signal;HPM_P1;HPM_P2
2021/04/01 00:01:07;;;;;;;5.87;4.60;;;15.70;99.90;;;;;;5031595;28;20196;-84
2021/04/01 00:03:33;;;;;;;5.77;4.50;;;15.60;99.90;;;;;;5032789;28;20656;-83
2021/04/01 00:05:58;;;;;;;5.80;4.67;;;15.60;99.90;;;;;;5031395;28;20427;-84
2021/04/01 00:08:24;;;;;;;8.20;3.83;;;15.50;99.90;;;;;;5032752;28;20180;-83
2021/04/01 00:10:49;;;;;;;4.43;3.73;;;15.40;99.90;;;;;;5032031;28;20228;-83
2021/04/01 00:13:15;;;;;;;6.33;4.50;;;15.40;99.90;;;;;;5033096;28;20200;-82
2021/04/01 00:15:42;;;;;;;5.90;4.47;;;15.50;99.90;;;;;;5032549;28;20191;-83
2021/04/01 00:18:19;;;;;;;6.47;4.40;;;15.60;99.90;;;;;;5031986;28;20216;-83
2021/04/01 00:20:45;;;;;;;8.30;4.70;;;15.60;99.90;;;;;;5033197;28;20430;-83
2021/04/01 00:23:11;;;;;;;5.20;4.70;;;15.60;99.90;;;;;;5030512;28;20431;-83
2021/04/01 00:25:37;;;;;;;7.13;4.83;;;15.60;99.90;;;;;;5031206;28;20219;-83
2021/04/01 00:28:03;;;;;;;4.93;3.77;;;15.60;99.90;;;;;;5031310;28;20512;-84
2021/04/01 00:30:29;;;;;;;6.07;4.63;;;15.60;99.90;;;;;;5031034;28;20457;-83
2021/04/01 00:32:55;;;;;;;6.40;4.33;;;15.70;99.90;;;;;;5030978;28;20938;-84
2021/04/01 00:35:21;;;;;;;7.60;5.03;;;15.90;99.90;;;;;;5031129;28;20411;-84
2021/04/01 00:37:46;;;;;;;8.37;4.30;;;15.90;99.90;;;;;;5030893;28;20767;-83
2021/04/01 00:40:13;;;;;;;4.03;3.43;;;16.00;99.90;;;;;;5031023;28;20204;-83
2021/04/01 00:42:39;;;;;;;4.30;3.90;;;15.90;99.90;;;;;;5032336;28;20199;-83
2021/04/01 00:45:08;;;;;;;7.80;4.40;;;15.90;99.90;;;;;;5030948;28;20903;-83
2021/04/01 00:47:45;;;;;;;3.90;3.50;;;15.90;99.90;;;;;;5030871;28;20469;-83
2021/04/01 00:50:16;;;;;;;6.30;4.70;;;15.90;99.90;;;;;;5030789;28;20419;-84
2021/04/01 00:52:42;;;;;;;8.10;4.40;;;15.80;99.90;;;;;;5031039;28;20423;-84
2021/04/01 00:55:09;;;;;;;4.57;3.90;;;15.80;99.90;;;;;;5031040;28;20815;-84
2021/04/01 00:57:38;;;;;;;5.70;4.30;;;15.70;99.90;;;;;;5030627;28;20204;-84
2021/04/01 01:00:06;;;;;;;4.37;3.97;;;15.70;99.90;;;;;;5032124;28;20420;-84
2021/04/01 01:02:38;;;;;;;6.60;3.73;;;15.70;99.90;;;;;;5030601;28;20423;-83
2021/04/01 01:05:05;;;;;;;4.30;3.90;;;15.70;99.90;;;;;;5030935;28;20436;-84
2021/04/01 01:07:31;;;;;;;7.47;4.10;;;15.60;99.90;;;;;;5030714;28;20505;-84
2021/04/01 01:09:57;;;;;;;5.57;4.73;;;15.60;99.90;;;;;;5031808;28;20494;-85
2021/04/01 01:12:22;;;;;;;4.53;4.10;;;15.60;99.90;;;;;;5030845;28;20180;-84
2021/04/01 01:14:48;;;;;;;5.27;3.50;;;15.50;99.90;;;;;;5032433;28;20188;-84
2021/04/01 01:17:15;;;;;;;3.83;3.47;;;15.40;99.90;;;;;;5034024;28;20227;-84
2021/04/01 01:19:45;;;;;;;6.80;4.30;;;15.40;99.90;;;;;;5035802;28;20430;-84
2021/04/01 01:22:11;;;;;;;3.63;3.33;;;15.30;99.90;;;;;;5033445;28;20431;-84
2021/04/01 01:24:37;;;;;;;5.50;4.00;;;15.30;99.90;;;;;;5034241;28;20438;-83
2021/04/01 01:27:05;;;;;;;4.20;3.70;;;15.20;99.90;;;;;;5035339;28;20736;-85
2021/04/01 01:29:32;;;;;;;8.17;3.90;;;15.10;99.90;;;;;;5033747;28;20231;-84
2021/04/01 01:31:58;;;;;;;4.83;3.63;;;15.00;99.90;;;;;;5034239;28;20488;-84
2021/04/01 01:34:24;;;;;;;4.80;4.40;;;14.90;99.90;;;;;;5034077;28;20511;-84
2021/04/01 01:36:50;;;;;;;6.43;4.10;;;14.90;99.90;;;;;;5034185;28;20507;-84
2021/04/01 01:39:15;;;;;;;10.00;5.13;;;14.80;99.90;;;;;;5033866;28;20212;-84
2021/04/01 01:41:42;;;;;;;5.10;3.73;;;14.80;99.90;;;;;;5035235;28;20411;-84
2021/04/01 01:44:08;;;;;;;7.53;4.20;;;14.80;99.90;;;;;;5034792;28;20169;-84
2021/04/01 01:46:33;;;;;;;4.27;3.87;;;14.80;99.90;;;;;;5034182;28;20481;-84
2021/04/01 01:48:59;;;;;;;6.53;3.67;;;14.80;99.90;;;;;;5033993;28;20501;-85
2021/04/01 01:51:29;;;;;;;9.10;4.70;;;14.80;99.90;;;;;;5035070;28;20173;-84
2021/04/01 01:53:55;;;;;;;4.07;3.50;;;14.70;99.90;;;;;;5033426;28;20423;-84
2021/04/01 01:56:22;;;;;;;5.60;3.90;;;14.60;99.90;;;;;;5034500;28;20419;-84
2021/04/01 01:58:49;;;;;;;8.60;4.87;;;14.40;1.00;;;;;;5035433;28;20290;-83
2021/04/01 02:01:17;;;;;;;7.33;5.20;;;14.40;1.00;;;;;;5033713;28;20825;-84
2021/04/01 02:03:43;;;;;;;4.73;4.27;;;14.40;1.00;;;;;;5034883;28;20487;-84
2021/04/01 02:06:17;;;;;;;4.17;3.43;;;14.50;1.00;;;;;;5034287;28;20524;-84
2021/04/01 02:08:43;;;;;;;4.17;3.80;;;14.50;1.00;;;;;;5033721;28;20187;-84
2021/04/01 02:11:09;;;;;;;4.53;4.13;;;14.50;1.00;;;;;;5033629;28;20431;-84
2021/04/01 02:13:34;;;;;;;5.20;4.10;;;14.40;1.00;;;;;;5034263;28;20192;-84
2021/04/01 02:16:00;;;;;;;7.13;4.50;;;14.40;1.00;;;;;;5033467;28;20721;-84
2021/04/01 02:18:28;;;;;;;7.13;4.13;;;14.30;1.00;;;;;;5033448;28;20238;-85
2021/04/01 02:20:56;;;;;;;4.30;3.63;;;14.30;1.00;;;;;;5034724;28;20416;-84
2021/04/01 02:23:31;;;;;;;4.83;4.10;;;14.20;1.00;;;;;;5032432;28;20431;-84
2021/04/01 02:25:58;;;;;;;5.30;3.90;;;14.00;1.00;;;;;;5031983;28;20426;-84
2021/04/01 02:28:26;;;;;;;3.90;3.57;;;13.90;1.00;;;;;;5033273;28;20419;-84
2021/04/01 02:30:54;;;;;;;5.57;3.87;;;13.90;1.00;;;;;;5033202;28;20425;-84
2021/04/01 02:33:25;;;;;;;7.27;4.07;;;13.90;1.00;;;;;;5034481;28;20435;-84
2021/04/01 02:35:51;;;;;;;5.70;4.03;;;13.90;1.00;;;;;;5032716;28;20834;-84
2021/04/01 02:38:18;;;;;;;4.40;4.00;;;13.90;1.00;;;;;;5049688;28;20533;-84
2021/04/01 02:40:44;;;;;;;14.63;3.97;;;13.90;1.00;;;;;;5032992;28;20822;-83
2021/04/01 02:43:15;;;;;;;4.30;3.80;;;13.90;1.00;;;;;;5033083;28;20427;-83
2021/04/01 02:45:41;;;;;;;5.20;4.60;;;13.90;1.00;;;;;;5032719;28;20268;-84
2021/04/01 02:48:10;;;;;;;4.93;4.40;;;13.90;1.00;;;;;;5032527;28;20515;-84
2021/04/01 02:50:37;;;;;;;5.20;4.30;;;13.90;1.00;;;;;;5032667;28;20237;-83
2021/04/01 02:53:03;;;;;;;6.10;3.80;;;13.80;1.00;;;;;;5034017;28;20419;-83
2021/04/01 02:55:28;;;;;;;5.80;4.23;;;13.80;1.00;;;;;;5034044;28;20806;-84
2021/04/01 02:57:54;;;;;;;5.90;4.10;;;13.80;1.00;;;;;;5034030;28;20237;-84
2021/04/01 03:00:23;;;;;;;4.73;4.33;;;13.80;1.00;;;;;;5033731;28;20650;-83
2021/04/01 03:03:02;;;;;;;6.00;4.80;;;13.80;1.00;;;;;;5032527;28;20668;-84
2021/04/01 03:05:28;;;;;;;5.40;4.87;;;13.60;1.00;;;;;;5032933;28;20777;-83
2021/04/01 03:07:54;;;;;;;5.60;4.97;;;13.60;1.00;;;;;;5032459;28;20434;-84
2021/04/01 03:10:19;;;;;;;7.30;6.60;;;13.50;1.00;;;;;;5032146;28;20469;-84
2021/04/01 03:12:45;;;;;;;5.10;4.50;;;13.40;3.60;;;;;;5032260;28;20185;-84
2021/04/01 03:15:11;;;;;;;5.87;5.27;;;13.30;50.80;;;;;;5031764;28;20200;-84
2021/04/01 03:17:39;;;;;;;5.47;5.00;;;13.10;99.90;;;;;;5033638;28;20219;-83
2021/04/01 03:20:05;;;;;;;7.07;5.40;;;13.10;99.90;;;;;;5033486;28;20478;-83
2021/04/01 03:22:31;;;;;;;7.00;5.37;;;13.00;99.90;;;;;;5032568;28;20531;-83
2021/04/01 03:24:57;;;;;;;7.30;5.00;;;13.10;99.90;;;;;;5033580;28;20430;-83
2021/04/01 03:27:23;;;;;;;4.70;4.30;;;13.30;71.70;;;;;;5033366;28;20416;-83
2021/04/01 03:30:07;;;;;;;10.90;5.03;;;13.30;34.60;;;;;;5032063;28;20227;-84
2021/04/01 03:32:38;;;;;;;4.80;4.40;;;13.40;14.10;;;;;;5032713;28;20423;-84
2021/04/01 03:35:06;;;;;;;7.07;5.13;;;13.30;9.50;;;;;;5032546;28;20906;-83
2021/04/01 03:37:31;;;;;;;5.97;5.33;;;13.30;22.80;;;;;;5031849;28;20986;-83
2021/04/01 03:39:57;;;;;;;16.10;5.53;;;13.20;41.40;;;;;;5032134;28;20438;-83
2021/04/01 03:42:24;;;;;;;6.20;5.60;;;13.10;89.40;;;;;;5033647;28;20628;-83
2021/04/01 03:44:50;;;;;;;6.63;5.27;;;13.10;95.60;;;;;;5031902;28;20184;-83
2021/04/01 03:47:15;;;;;;;13.20;5.30;;;13.00;99.90;;;;;;5032132;28;20907;-82
2021/04/01 03:49:41;;;;;;;6.40;5.73;;;13.00;99.90;;;;;;5032992;28;20181;-83
2021/04/01 03:52:07;;;;;;;6.53;5.17;;;12.70;99.90;;;;;;5048492;28;20180;-83
2021/04/01 03:54:33;;;;;;;7.47;5.77;;;12.70;99.90;;;;;;5031451;28;20423;-84
2021/04/01 03:57:00;;;;;;;5.17;4.77;;;12.70;99.90;;;;;;5031633;28;20199;-83
2021/04/01 03:59:35;;;;;;;6.20;5.20;;;12.70;99.90;;;;;;5031779;28;20196;-84
2021/04/01 04:02:30;;;;;;;7.03;6.33;;;12.70;99.90;;;;;;5031400;28;20655;-82
2021/04/01 04:12:28;;;;;;;10.57;7.13;;;12.80;99.90;;;;;;5032510;28;20473;-82
2021/04/01 04:17:28;;;;;;;7.33;5.87;;;12.90;99.90;;;;;;5032432;28;20523;-84
2021/04/01 04:19:54;;;;;;;11.13;7.20;;;13.10;59.80;;;;;;5030554;28;20443;-83
2021/04/01 04:22:20;;;;;;;11.10;6.90;;;13.20;1.00;;;;;;5030496;28;20474;-83
2021/04/01 04:24:45;;;;;;;8.80;7.23;;;13.40;1.00;;;;;;5031304;28;20184;-83
2021/04/01 04:29:59;;;;;;;5.80;5.30;;;13.50;1.00;;;;;;5032487;28;20192;-83
2021/04/01 04:32:25;;;;;;;9.70;6.80;;;13.40;1.00;;;;;;5030957;28;20407;-84
2021/04/01 04:34:51;;;;;;;7.47;6.10;;;13.30;1.00;;;;;;5031287;28;20541;-84
2021/04/01 04:37:16;;;;;;;8.60;7.20;;;13.30;1.00;;;;;;5032242;28;21033;-82
2021/04/01 04:39:42;;;;;;;8.87;6.10;;;13.30;1.00;;;;;;5031196;28;20192;-84
2021/04/01 04:42:08;;;;;;;9.03;6.50;;;13.30;1.00;;;;;;5031196;28;20185;-84
2021/04/01 04:44:33;;;;;;;12.47;6.90;;;13.40;16.10;;;;;;5030904;28;20180;-83
2021/04/01 04:46:59;;;;;;;8.83;6.53;;;13.50;1.00;;;;;;5030745;28;20192;-85
2021/04/01 04:49:26;;;;;;;6.13;5.63;;;13.40;1.00;;;;;;5032913;28;20183;-84
2021/04/01 04:51:51;;;;;;;12.40;6.70;;;13.40;1.00;;;;;;5036995;28;20613;-83
2021/04/01 04:54:17;;;;;;;9.30;6.30;;;13.40;1.50;;;;;;5036777;28;20425;-84
2021/04/01 04:56:44;;;;;;;6.63;6.03;;;13.30;19.10;;;;;;5037112;28;20178;-84
2021/04/01 04:59:13;;;;;;;8.93;5.37;;;13.30;16.80;;;;;;5035245;28;20478;-83
2021/04/01 05:06:54;;;;;;;9.10;5.90;;;13.60;1.00;;;;;;5036472;28;20203;-84
2021/04/01 05:09:21;;;;;;;6.30;4.97;;;13.60;1.00;;;;;;5035030;28;20534;-83
2021/04/01 05:11:47;;;;;;;15.33;5.77;;;13.70;1.00;;;;;;5034144;28;20846;-82
2021/04/01 05:14:13;;;;;;;5.97;5.43;;;13.70;1.00;;;;;;5034874;28;20419;-83
2021/04/01 05:16:38;;;;;;;5.37;4.50;;;13.80;1.00;;;;;;5034248;28;20177;-83
2021/04/01 05:19:07;;;;;;;6.70;5.20;;;13.90;1.00;;;;;;5034550;28;20220;-84
2021/04/01 05:21:37;;;;;;;7.23;4.90;;;14.00;1.00;;;;;;5037530;28;20656;-85
2021/04/01 05:24:06;;;;;;;12.50;5.70;;;14.10;1.00;;;;;;5033151;28;20438;-83
2021/04/01 05:29:04;;;;;;;6.30;5.03;;;14.10;1.00;;;;;;5036052;28;20419;-79
2021/04/01 05:31:35;;;;;;;5.50;4.90;;;14.10;1.00;;;;;;5034301;28;20435;-83
2021/04/01 05:34:01;;;;;;;5.90;4.87;;;14.10;1.00;;;;;;5034043;28;20412;-85
2021/04/01 05:36:28;;;;;;;5.77;5.17;;;14.10;1.00;;;;;;5037402;28;20426;-85
2021/04/01 05:38:56;;;;;;;10.23;4.77;;;14.10;1.00;;;;;;5034802;28;20607;-82
2021/04/01 05:41:25;;;;;;;5.20;4.70;;;14.10;1.00;;;;;;5034157;28;20415;-82
2021/04/01 05:46:46;;;;;;;9.13;5.20;;;14.20;1.00;;;;;;5016835;28;20879;-82
2021/04/01 06:00:21;;;;;;;10.30;8.60;;;14.50;1.00;;;;;;5023613;28;20791;-84
2021/04/01 06:06:11;;;;;;;10.00;5.57;;;14.70;1.00;;;;;;5036537;28;20492;-84
2021/04/01 06:08:46;;;;;;;5.53;5.03;;;14.80;1.00;;;;;;5033748;28;20779;-82
2021/04/01 06:11:12;;;;;;;7.10;5.00;;;15.10;1.00;;;;;;5033968;28;20430;-84
2021/04/01 06:13:55;;;;;;;12.20;7.97;;;15.40;1.00;;;;;;5034032;28;20570;-83
2021/04/01 06:16:23;;;;;;;10.23;5.47;;;16.10;1.00;;;;;;5033107;28;20193;-87
2021/04/01 06:18:54;;;;;;;11.00;6.30;;;16.50;99.90;;;;;;5026478;28;20479;-81
2021/04/01 06:21:24;;;;;;;8.20;5.13;;;16.80;99.90;;;;;;5032021;28;20428;-83
2021/04/01 06:24:02;;;;;;;35.10;7.97;;;17.10;99.90;;;;;;5035012;28;20763;-83
2021/04/01 06:26:31;;;;;;;10.93;5.87;;;17.10;99.90;;;;;;5017767;28;20446;-85
2021/04/01 06:29:01;;;;;;;9.47;5.83;;;17.20;99.90;;;;;;5031952;28;20431;-84
2021/04/01 06:31:29;;;;;;;18.97;7.57;;;17.40;99.90;;;;;;5029886;28;20435;-84
2021/04/01 06:34:00;;;;;;;47.03;10.50;;;16.90;99.90;;;;;;5031193;28;20438;-84
2021/04/01 06:36:28;;;;;;;8.53;6.40;;;16.60;99.90;;;;;;5030943;28;20432;-83
2021/04/01 06:38:54;;;;;;;22.30;7.10;;;16.40;99.90;;;;;;5028915;28;20479;-85
2021/04/01 06:41:25;;;;;;;9.43;6.40;;;16.40;99.90;;;;;;5045798;28;20427;-86
2021/04/01 06:44:14;;;;;;;18.13;6.37;;;16.40;1.00;;;;;;5032235;28;20540;-84
2021/04/01 06:46:47;;;;;;;16.70;6.90;;;16.30;1.00;;;;;;5016659;28;20408;-85
2021/04/01 06:49:38;;;;;;;9.20;5.90;;;16.20;99.90;;;;;;5033193;28;20427;-83
2021/04/01 06:52:15;;;;;;;9.63;6.00;;;17.00;99.90;;;;;;5032372;28;20423;-83
2021/04/01 06:55:00;;;;;;;8.10;5.53;;;17.30;99.90;;;;;;5032391;28;20427;-84
2021/04/01 06:57:40;;;;;;;12.20;5.60;;;18.10;99.90;;;;;;5032390;28;20919;-84
2021/04/01 07:00:25;;;;;;;11.97;6.07;;;18.80;99.90;;;;;;5033977;28;20768;-83
2021/04/01 07:05:56;;;;;;;10.50;5.73;;;20.40;99.90;;;;;;5026817;28;20426;-85
2021/04/01 07:08:45;;;;;;;8.23;4.80;;;21.50;99.90;;;;;;5033237;28;20419;-82
2021/04/01 07:11:39;;;;;;;5.30;4.30;;;21.90;99.90;;;;;;5030268;28;20978;-85
2021/04/01 07:14:16;;;;;;;5.20;4.70;;;22.00;99.90;;;;;;5029002;28;20428;-84
2021/04/01 07:16:50;;;;;;;11.13;4.97;;;22.10;99.90;;;;;;5033334;28;20431;-83
2021/04/01 07:44:56;;;;;;;5.03;4.63;;;22.40;99.90;;;;;;5034700;28;20507;-82
2021/04/01 07:47:36;;;;;;;6.90;5.00;;;22.30;99.90;;;;;;5032769;28;20950;-84
2021/04/01 07:50:20;;;;;;;5.33;4.23;;;22.20;99.90;;;;;;5029636;28;20836;-83
2021/04/01 07:52:56;;;;;;;4.77;4.07;;;23.20;99.90;;;;;;5030037;28;20457;-84
2021/04/01 08:06:20;;;;;;;9.37;4.30;;;24.60;99.90;;;;;;5030691;28;20424;-84
2021/04/01 08:08:49;;;;;;;5.30;4.37;;;25.90;99.90;;;;;;5046172;28;20506;-84
2021/04/01 08:11:38;;;;;;;5.13;4.50;;;26.10;99.90;;;;;;5030977;28;20439;-84
2021/04/01 08:14:11;;;;;;;4.50;4.10;;;26.00;99.90;;;;;;5029905;28;20524;-84
2021/04/01 08:16:41;;;;;;;9.80;8.83;;;26.10;99.90;;;;;;5030378;28;20878;-84
2021/04/01 08:19:12;;;;;;;4.40;4.10;;;26.10;99.90;;;;;;5030611;28;20509;-84
2021/04/01 08:21:41;;;;;;;6.43;4.70;;;26.10;99.90;;;;;;5030170;28;20427;-83
2021/04/01 08:24:12;;;;;;;22.37;11.90;;;25.90;99.90;;;;;;5031440;28;20993;-81
2021/04/01 08:26:48;;;;;;;5.80;4.20;;;26.10;99.90;;;;;;5030728;28;20477;-84
2021/04/01 08:32:20;;;;;;;4.70;4.30;;;26.60;99.90;;;;;;5031808;28;20402;-82
2021/04/01 08:34:49;;;;;;;5.13;4.73;;;27.20;99.90;;;;;;5032220;28;20414;-83
2021/04/01 08:37:16;;;;;;;4.67;4.27;;;26.90;99.90;;;;;;5033705;28;20427;-84
2021/04/01 08:39:47;;;;;;;5.03;4.50;;;25.90;99.90;;;;;;5030714;28;20419;-82
2021/04/01 08:42:33;;;;;;;7.13;4.87;;;26.10;99.90;;;;;;5030187;28;20453;-84
2021/04/01 08:45:28;;;;;;;5.87;5.13;;;26.50;99.90;;;;;;5031783;28;20415;-84
2021/04/01 08:48:12;;;;;;;7.00;4.47;;;26.90;99.90;;;;;;5032305;28;20419;-85
2021/04/01 08:51:10;;;;;;;6.93;5.20;;;26.80;99.90;;;;;;5031905;28;20415;-84
2021/04/01 08:53:56;;;;;;;7.00;6.30;;;26.70;99.90;;;;;;5031384;28;20907;-84
2021/04/01 08:56:43;;;;;;;6.20;5.60;;;25.80;99.90;;;;;;5048897;28;20427;-84
2021/04/01 08:59:39;;;;;;;7.07;6.47;;;26.50;99.90;;;;;;5031541;28;20478;-85
2021/04/01 09:02:10;;;;;;;8.80;5.60;;;27.00;99.90;;;;;;5031815;28;20961;-85
2021/04/01 09:04:37;;;;;;;8.93;5.63;;;25.80;99.90;;;;;;5030422;28;20431;-83
2021/04/01 09:07:10;;;;;;;5.97;5.40;;;25.70;99.90;;;;;;5032091;28;20466;-84
2021/04/01 09:09:38;;;;;;;6.50;5.90;;;25.60;99.90;;;;;;5032060;28;20462;-84
2021/04/01 09:12:35;;;;;;;9.63;6.30;;;25.70;99.90;;;;;;5031307;28;20958;-85
2021/04/01 09:15:13;;;;;;;10.03;6.60;;;24.90;99.90;;;;;;5031637;28;20407;-83
2021/04/01 09:17:38;;;;;;;8.33;6.70;;;24.70;99.90;;;;;;5031900;28;20458;-85
2021/04/01 09:20:13;;;;;;;7.63;6.50;;;24.30;99.90;;;;;;5031732;28;20522;-85
2021/04/01 09:22:47;;;;;;;7.00;6.40;;;24.00;99.90;;;;;;5030176;28;20678;-85
2021/04/01 09:25:14;;;;;;;9.53;6.40;;;24.30;99.90;;;;;;5030507;28;20935;-86
2021/04/01 09:28:04;;;;;;;7.23;6.47;;;24.90;99.90;;;;;;5030581;28;20415;-82
2021/04/01 09:30:30;;;;;;;7.80;6.83;;;24.90;99.90;;;;;;5025530;28;20451;-85
2021/04/01 09:33:05;;;;;;;8.97;6.17;;;25.40;99.90;;;;;;5029024;28;20478;-84
2021/04/01 09:35:33;;;;;;;7.40;6.23;;;25.90;99.90;;;;;;5029491;28;20235;-85
2021/04/01 09:38:04;;;;;;;6.67;5.70;;;26.10;99.90;;;;;;5033494;28;20537;-86
2021/04/01 09:40:36;;;;;;;8.50;5.97;;;25.70;99.90;;;;;;5034908;28;20434;-86
2021/04/01 09:43:12;;;;;;;5.80;4.43;;;25.60;99.90;;;;;;5034991;28;20446;-84
2021/04/01 09:45:38;;;;;;;6.53;4.70;;;25.90;99.90;;;;;;5032932;28;20454;-82
2021/04/01 09:48:04;;;;;;;5.67;5.07;;;25.70;99.90;;;;;;5052723;28;20508;-85
2021/04/01 09:50:53;;;;;;;5.70;4.70;;;26.30;99.90;;;;;;5033199;28;20183;-85
2021/04/01 09:53:23;;;;;;;5.90;5.00;;;26.20;99.90;;;;;;5034050;28;20411;-85
2021/04/01 09:55:51;;;;;;;5.23;4.60;;;26.60;99.90;;;;;;5023439;28;20440;-85
2021/04/01 09:58:23;;;;;;;5.60;5.10;;;26.40;99.90;;;;;;5031780;28;20487;-84
2021/04/01 10:03:28;;;;;;;5.93;4.60;;;27.50;99.90;;;;;;5033478;28;20818;-84
2021/04/01 10:05:54;;;;;;;5.77;5.20;;;27.20;99.90;;;;;;5034012;28;20540;-86
2021/04/01 10:08:30;;;;;;;3.87;3.60;;;28.50;99.90;;;;;;5033854;28;20416;-85
2021/04/01 10:11:26;;;;;;;5.67;4.23;;;29.10;99.90;;;;;;5035223;28;20473;-85
2021/04/01 10:14:11;;;;;;;5.43;4.20;;;29.30;99.90;;;;;;5043731;28;20855;-85
2021/04/01 10:17:03;;;;;;;4.30;3.90;;;29.40;99.90;;;;;;5025393;28;20446;-84
2021/04/01 10:19:34;;;;;;;7.87;5.00;;;29.20;99.90;;;;;;5029128;28;20483;-84
2021/04/01 10:22:01;;;;;;;6.87;4.67;;;28.50;99.90;;;;;;5032797;28;20427;-86
2021/04/01 10:24:31;;;;;;;4.57;4.13;;;29.60;99.90;;;;;;5032358;28;20451;-85
2021/04/01 10:27:08;;;;;;;5.97;4.20;;;29.40;99.90;;;;;;5047516;28;20431;-87
2021/04/01 10:29:43;;;;;;;6.97;4.30;;;29.10;99.90;;;;;;5030031;28;20447;-85
2021/04/01 10:32:09;;;;;;;4.90;4.50;;;29.60;99.90;;;;;;5035842;28;20426;-85
2021/04/01 10:34:35;;;;;;;6.67;4.30;;;29.20;99.90;;;;;;5035551;28;20428;-85
2021/04/01 10:37:07;;;;;;;5.57;4.10;;;29.10;99.90;;;;;;5038807;28;20559;-84
2021/04/01 10:39:38;;;;;;;7.53;4.53;;;30.50;99.90;;;;;;5034928;28;20235;-85
2021/04/01 10:42:09;;;;;;;4.90;4.50;;;29.80;99.90;;;;;;5049073;28;20423;-86
2021/04/01 10:44:36;;;;;;;5.20;4.10;;;30.00;99.90;;;;;;5049548;28;20803;-85
2021/04/01 10:47:05;;;;;;;3.87;3.57;;;30.10;99.90;;;;;;5051665;28;20493;-83
2021/04/01 10:49:38;;;;;;;4.23;3.50;;;30.30;99.90;;;;;;5034548;28;20497;-86
2021/04/01 10:52:08;;;;;;;4.97;4.47;;;29.30;99.90;;;;;;5031720;28;20440;-84
2021/04/01 10:54:40;;;;;;;5.67;4.80;;;29.30;99.90;;;;;;5031714;28;20443;-84
2021/04/01 10:57:08;;;;;;;5.27;4.83;;;28.30;99.90;;;;;;5032845;28;20867;-86
2021/04/01 10:59:39;;;;;;;6.40;4.30;;;28.40;99.90;;;;;;5031764;28;20581;-82
2021/04/01 11:02:18;;;;;;;4.30;3.90;;;28.60;99.90;;;;;;5049280;28;20492;-85
2021/04/01 11:05:01;;;;;;;3.97;3.60;;;29.20;99.90;;;;;;5030225;28;20519;-82
2021/04/01 11:07:33;;;;;;;5.03;4.53;;;29.30;99.90;;;;;;5028761;28;21041;-86
2021/04/01 11:09:59;;;;;;;4.83;3.87;;;29.50;99.90;;;;;;5032444;28;20505;-85
2021/04/01 11:12:25;;;;;;;5.53;4.50;;;29.70;99.90;;;;;;5032370;28;20554;-84
2021/04/01 11:14:53;;;;;;;5.70;4.20;;;29.80;99.90;;;;;;5033503;28;20518;-86
2021/04/01 11:17:24;;;;;;;4.53;3.90;;;29.70;99.90;;;;;;5032375;28;20198;-83
2021/04/01 11:19:52;;;;;;;7.57;5.10;;;29.40;99.90;;;;;;5032622;28;20438;-84
2021/04/01 11:22:18;;;;;;;4.20;3.50;;;29.10;99.90;;;;;;5034148;28;20533;-83
2021/04/01 11:24:44;;;;;;;4.20;3.80;;;28.90;99.90;;;;;;5033324;28;20997;-84
2021/04/01 11:27:19;;;;;;;5.40;3.60;;;28.90;99.90;;;;;;5034194;28;20416;-84
2021/04/01 11:29:54;;;;;;;9.90;5.13;;;29.20;99.90;;;;;;5033375;28;20178;-84
2021/04/01 11:32:26;;;;;;;4.20;3.90;;;28.80;99.90;;;;;;5024933;28;20411;-84
2021/04/01 11:34:57;;;;;;;7.93;4.10;;;28.20;99.90;;;;;;5031761;28;20453;-83
2021/04/01 11:37:25;;;;;;;4.10;3.70;;;28.20;99.90;;;;;;5033390;28;20461;-85
2021/04/01 11:39:58;;;;;;;6.00;4.87;;;27.80;99.90;;;;;;5032068;28;20484;-84
2021/04/01 11:42:24;;;;;;;6.33;3.90;;;27.60;99.90;;;;;;5033496;28;20412;-83
2021/04/01 11:45:08;;;;;;;4.23;3.83;;;26.60;99.90;;;;;;5032803;28;20550;-85
2021/04/01 11:47:39;;;;;;;4.20;3.80;;;26.80;99.90;;;;;;5031527;28;20816;-83
2021/04/01 11:50:05;;;;;;;5.07;4.67;;;26.50;99.90;;;;;;5031096;28;20518;-85
2021/04/01 11:52:32;;;;;;;4.50;4.10;;;26.20;99.90;;;;;;5030370;28;21009;-84
2021/04/01 11:55:09;;;;;;;4.63;4.23;;;26.00;99.90;;;;;;5031163;28;20492;-76
2021/04/01 11:57:35;;;;;;;5.00;4.50;;;25.80;99.90;;;;;;5032323;28;20430;-83
2021/04/01 12:00:19;;;;;;;6.03;4.90;;;25.70;99.90;;;;;;5032115;28;20530;-84
2021/04/01 12:05:22;;;;;;;5.17;4.00;;;25.90;99.90;;;;;;5032229;28;20496;-83
2021/04/01 12:07:47;;;;;;;4.67;4.30;;;25.50;99.90;;;;;;5030756;28;20925;-84
2021/04/01 12:10:14;;;;;;;4.63;4.23;;;25.40;99.90;;;;;;5031806;28;20490;-84
2021/04/01 12:12:40;;;;;;;4.73;4.23;;;25.40;99.90;;;;;;5031629;28;20259;-84
2021/04/01 12:15:06;;;;;;;4.10;3.80;;;25.60;99.90;;;;;;5032027;28;20499;-85
2021/04/01 12:17:37;;;;;;;5.63;4.10;;;25.40;99.90;;;;;;5030246;28;20188;-84
2021/04/01 12:20:13;;;;;;;4.37;3.93;;;25.60;99.90;;;;;;5031334;28;20470;-83
2021/04/01 12:22:42;;;;;;;4.10;3.80;;;25.70;99.90;;;;;;5031640;28;20415;-85
2021/04/01 12:25:13;;;;;;;3.90;3.50;;;25.70;99.90;;;;;;5030978;28;20436;-80
2021/04/01 12:27:39;;;;;;;6.30;3.90;;;25.60;99.90;;;;;;5034297;28;20403;-81
2021/04/01 12:30:09;;;;;;;5.60;3.70;;;25.40;99.90;;;;;;5030865;28;20997;-83
2021/04/01 12:32:35;;;;;;;8.90;4.20;;;25.40;99.90;;;;;;5032709;28;20173;-85
2021/04/01 12:35:10;;;;;;;5.67;5.00;;;25.60;99.90;;;;;;5032482;28;20494;-83
2021/04/01 12:37:37;;;;;;;3.87;3.53;;;25.90;99.90;;;;;;5030784;28;20411;-85
2021/04/01 12:40:15;;;;;;;4.60;3.87;;;26.00;99.90;;;;;;5030571;28;20843;-83
2021/04/01 12:42:41;;;;;;;5.70;4.03;;;25.80;99.90;;;;;;5030597;28;20431;-85
2021/04/01 12:45:29;;;;;;;6.13;4.30;;;25.70;99.90;;;;;;5031501;28;20612;-86
2021/04/01 12:48:17;;;;;;;7.33;4.40;;;25.70;99.90;;;;;;5030487;28;20176;-84
2021/04/01 12:50:44;;;;;;;4.33;4.03;;;25.60;99.90;;;;;;5032476;28;20906;-84
2021/04/01 12:53:10;;;;;;;5.87;3.73;;;25.50;99.90;;;;;;5047014;28;20427;-84
2021/04/01 12:55:43;;;;;;;3.30;3.00;;;25.30;99.90;;;;;;5031740;28;20961;-83
2021/04/01 12:58:16;;;;;;;4.30;3.90;;;25.10;99.90;;;;;;5032038;28;20702;-83
2021/04/01 13:00:46;;;;;;;6.00;4.53;;;25.00;99.90;;;;;;5032150;28;21001;-85
2021/04/01 13:03:12;;;;;;;4.03;3.70;;;24.90;99.90;;;;;;5030155;28;20526;-85
2021/04/01 13:05:41;;;;;;;4.23;3.90;;;24.80;99.90;;;;;;5030710;28;20431;-84
2021/04/01 13:08:22;;;;;;;7.47;4.57;;;24.90;99.90;;;;;;5032091;28;20203;-85
2021/04/01 13:10:48;;;;;;;4.20;3.90;;;24.80;99.90;;;;;;5034286;28;20469;-83
2021/04/01 13:13:14;;;;;;;8.80;4.43;;;24.80;99.90;;;;;;5035430;28;20522;-84
2021/04/01 13:15:39;;;;;;;4.93;3.50;;;24.90;99.90;;;;;;5035429;28;20168;-86
2021/04/01 13:18:07;;;;;;;7.73;5.47;;;24.90;99.90;;;;;;5035824;28;20258;-83
2021/04/01 13:20:33;;;;;;;5.13;4.73;;;24.80;99.90;;;;;;5034311;28;20746;-85
2021/04/01 13:25:28;;;;;;;4.63;4.17;;;24.90;99.90;;;;;;5035630;28;20424;-85
2021/04/01 13:28:01;;;;;;;4.63;4.10;;;24.80;99.90;;;;;;5034910;28;20458;-83
2021/04/01 13:30:29;;;;;;;5.37;3.80;;;24.50;99.90;;;;;;5051831;28;20408;-84
2021/04/01 13:35:41;;;;;;;5.90;5.00;;;23.90;99.90;;;;;;5035839;28;20418;-84
2021/04/01 13:38:14;;;;;;;10.13;5.60;;;23.90;99.90;;;;;;5036430;28;20532;-84
2021/04/01 13:40:42;;;;;;;8.90;4.97;;;24.00;99.90;;;;;;5033987;28;20561;-84
2021/04/01 13:43:10;;;;;;;5.50;4.90;;;24.10;99.90;;;;;;5035179;28;20429;-85
2021/04/01 13:45:38;;;;;;;5.13;4.73;;;24.20;99.90;;;;;;5033745;28;20419;-85
2021/04/01 13:48:07;;;;;;;5.83;5.33;;;24.20;99.90;;;;;;5035775;28;20530;-83
2021/04/01 13:50:36;;;;;;;6.23;5.63;;;24.20;99.90;;;;;;5033427;28;20522;-83
2021/04/01 13:53:20;;;;;;;9.53;5.57;;;24.20;99.90;;;;;;5035165;28;20422;-84
2021/04/01 13:55:49;;;;;;;9.70;6.23;;;24.20;99.90;;;;;;5035348;28;20407;-86
2021/04/01 14:03:42;;;;;;;8.13;5.60;;;24.30;99.90;;;;;;5037118;28;20410;-85
2021/04/01 14:09:35;;;;;;;5.63;5.13;;;24.10;99.90;;;;;;5035052;28;20541;-83
2021/04/01 14:12:04;;;;;;;7.10;6.07;;;24.20;99.90;;;;;;5033537;28;21017;-83
2021/04/01 14:14:32;;;;;;;7.33;6.00;;;23.90;99.90;;;;;;5033799;28;20411;-85
2021/04/01 14:16:58;;;;;;;18.33;16.53;;;23.80;99.90;;;;;;5033526;28;20427;-84
2021/04/01 14:19:25;;;;;;;7.30;6.60;;;23.90;99.90;;;;;;5034349;28;20470;-83
2021/04/01 14:21:55;;;;;;;9.03;6.27;;;23.80;99.90;;;;;;5032508;28;20275;-85
2021/04/01 14:25:00;;;;;;;7.80;6.93;;;23.60;99.90;;;;;;5032921;28;20416;-83
2021/04/01 14:29:47;;;;;;;5.90;5.13;;;23.80;99.90;;;;;;5034288;28;20414;-83
2021/04/01 14:32:15;;;;;;;5.70;5.20;;;23.70;99.90;;;;;;5032887;28;20415;-83
2021/04/01 14:34:41;;;;;;;6.40;4.80;;;23.70;99.90;;;;;;5034562;28;20635;-85
2021/04/01 14:37:08;;;;;;;12.43;6.60;;;23.80;99.90;;;;;;5033235;28;20470;-86
2021/04/01 14:39:42;;;;;;;6.40;5.10;;;23.60;99.90;;;;;;5033027;28;20521;-84
2021/04/01 14:42:13;;;;;;;11.40;5.00;;;23.70;99.90;;;;;;5033182;28;20458;-85
2021/04/01 14:44:43;;;;;;;6.13;5.20;;;23.70;99.90;;;;;;5032630;28;20431;-86
2021/04/01 14:47:10;;;;;;;5.73;5.07;;;23.60;99.90;;;;;;5054912;28;20431;-82